createdAt,value
2018-04-10T00:02:15.994Z,73.73
2018-04-10T00:04:44.694Z,73.61
2018-04-10T00:07:12.992Z,74.21
2018-04-10T00:09:41.893Z,74.45
2018-04-10T00:12:10.194Z,73.79
2018-04-10T00:14:38.911Z,74.06
2018-04-10T00:17:07.350Z,74.72
2018-04-10T00:19:35.742Z,74.91
2018-04-10T00:22:04.613Z,74.90
2018-04-10T00:24:32.978Z,74.84
2018-04-10T00:27:01.538Z,75.02
2018-04-10T00:29:29.837Z,75.67
2018-04-10T00:31:58.170Z,75.79
2018-04-10T00:34:26.966Z,76.42
2018-04-10T00:36:55.269Z,77.32
2018-04-10T00:39:24.386Z,77.34
2018-04-10T00:41:52.694Z,77.51
2018-04-10T00:44:21.014Z,77.64
2018-04-10T00:46:50.083Z,78.04
2018-04-10T00:49:18.372Z,78.31
2018-04-10T00:51:47.436Z,79.16
2018-04-10T00:54:15.900Z,79.38
2018-04-10T00:56:44.186Z,79.42
2018-04-10T00:59:18.545Z,79.27
2018-04-10T01:01:47.183Z,79.53
2018-04-10T01:04:15.506Z,79.47
2018-04-10T01:06:43.834Z,79.27
2018-04-10T01:09:12.139Z,78.81
2018-04-10T01:11:40.507Z,79.26
2018-04-10T01:14:09.319Z,79.74
2018-04-10T01:16:38.306Z,79.26
2018-04-10T01:19:07.509Z,78.68
2018-04-10T01:21:36.571Z,79.01
2018-04-10T01:24:05.766Z,79.61
2018-04-10T01:26:35.086Z,79.93
2018-04-10T01:29:04.671Z,80.05
2018-04-10T01:31:38.270Z,79.83
2018-04-10T01:34:06.767Z,80.22
2018-04-10T01:36:35.195Z,80.68
2018-04-10T01:39:03.542Z,80.77
2018-04-10T01:41:32.108Z,80.78
2018-04-10T01:44:00.884Z,81.31
2018-04-10T01:46:29.471Z,80.96
2018-04-10T01:48:58.234Z,80.92
2018-04-10T01:51:26.571Z,80.73
2018-04-10T01:53:55.451Z,80.90
2018-04-10T01:56:23.888Z,80.82
2018-04-10T01:58:52.267Z,80.93
2018-04-10T02:01:20.570Z,81.35
2018-04-10T02:03:49.010Z,80.55
2018-04-10T02:06:17.313Z,80.91
2018-04-10T02:08:46.139Z,81.40
2018-04-10T02:11:15.314Z,80.77
2018-04-10T02:13:43.708Z,80.27
2018-04-10T02:16:13.384Z,80.77
2018-04-10T02:18:42.173Z,80.78
2018-04-10T02:21:10.491Z,80.00
2018-04-10T02:23:39.066Z,80.23
2018-04-10T02:26:08.233Z,80.61
2018-04-10T02:28:36.710Z,79.91
2018-04-10T02:31:05.503Z,79.80
2018-04-10T02:33:33.869Z,80.04
2018-04-10T02:36:02.238Z,79.84
2018-04-10T02:38:30.543Z,79.96
2018-04-10T02:40:59.435Z,79.73
2018-04-10T02:43:27.743Z,79.98
2018-04-10T02:45:56.759Z,79.87
2018-04-10T02:48:25.482Z,79.72
2018-04-10T02:50:53.795Z,79.81
2018-04-10T02:53:22.614Z,80.01
2018-04-10T02:55:52.832Z,80.56
2018-04-10T02:58:22.894Z,80.53
2018-04-10T03:00:51.195Z,80.33
2018-04-10T03:03:20.523Z,80.45
2018-04-10T03:05:49.415Z,81.10
2018-04-10T03:08:18.223Z,80.33
2018-04-10T03:10:47.058Z,79.94
2018-04-10T03:13:15.416Z,79.69
2018-04-10T03:15:43.702Z,79.66
2018-04-10T03:18:12.803Z,79.79
2018-04-10T03:20:41.139Z,79.89
2018-04-10T03:23:13.349Z,79.70
2018-04-10T03:25:41.638Z,80.43
2018-04-10T03:28:09.946Z,81.44
2018-04-10T03:30:38.285Z,81.63
2018-04-10T03:33:06.678Z,80.92
2018-04-10T03:35:35.415Z,80.80
2018-04-10T03:38:03.708Z,80.45
2018-04-10T03:40:32.202Z,80.03
2018-04-10T03:43:00.435Z,80.25
2018-04-10T03:45:28.734Z,79.50
2018-04-10T03:47:57.063Z,78.99
2018-04-10T03:50:25.358Z,78.92
2018-04-10T03:52:53.695Z,80.11
2018-04-10T03:55:22.858Z,80.79
2018-04-10T03:57:51.731Z,80.74
2018-04-10T04:00:20.171Z,80.35
2018-04-10T04:02:49.863Z,81.75
2018-04-10T04:05:18.151Z,81.85
2018-04-10T04:07:46.499Z,82.26
2018-04-10T04:10:14.789Z,82.85
2018-04-10T04:12:43.070Z,83.11
2018-04-10T04:15:11.511Z,83.87
2018-04-10T04:17:41.290Z,84.37
2018-04-10T04:20:27.158Z,84.88
2018-04-10T04:22:59.230Z,83.94
2018-04-10T04:25:28.334Z,83.69
2018-04-10T04:27:56.659Z,84.27
2018-04-10T04:30:24.960Z,84.70
2018-04-10T04:32:53.898Z,84.23
2018-04-10T04:35:22.182Z,83.77
2018-04-10T04:37:54.431Z,83.53
2018-04-10T04:40:22.727Z,84.03
2018-04-10T04:42:51.502Z,84.12
2018-04-10T04:45:20.982Z,84.00
2018-04-10T04:47:49.334Z,84.04
2018-04-10T04:50:17.628Z,84.02
2018-04-10T04:52:46.047Z,84.28
2018-04-10T04:55:14.905Z,84.91
2018-04-10T04:57:43.286Z,85.04
2018-04-10T05:00:12.322Z,84.53
2018-04-10T05:02:41.330Z,83.94
2018-04-10T05:05:09.690Z,83.29
2018-04-10T05:07:38.215Z,82.46
2018-04-10T05:10:06.510Z,82.25
2018-04-10T05:12:35.630Z,82.40
2018-04-10T05:15:03.927Z,81.55
2018-04-10T05:17:33.296Z,82.17
2018-04-10T05:20:02.949Z,82.63
2018-04-10T05:22:31.226Z,81.57
2018-04-10T05:24:59.545Z,80.82
2018-04-10T05:27:27.906Z,79.76
2018-04-10T05:29:56.205Z,79.43
2018-04-10T05:32:24.607Z,79.54
2018-04-10T05:34:53.102Z,78.55
2018-04-10T05:37:23.215Z,77.85
2018-04-10T05:39:52.367Z,78.31
2018-04-10T05:42:20.691Z,77.93
2018-04-10T05:44:48.999Z,77.25
2018-04-10T05:47:17.430Z,76.95
2018-04-10T05:49:45.771Z,76.67
2018-04-10T05:52:14.807Z,75.63
2018-04-10T05:54:43.252Z,74.81
2018-04-10T05:57:11.543Z,74.28
2018-04-10T05:59:40.287Z,73.36
2018-04-10T06:02:08.631Z,73.26
2018-04-10T06:04:36.943Z,72.93
2018-04-10T06:07:06.269Z,72.85
2018-04-10T06:09:34.637Z,72.79
2018-04-10T06:12:03.315Z,73.84
2018-04-10T06:14:31.742Z,72.02
2018-04-10T06:17:00.683Z,70.45
2018-04-10T06:19:31.655Z,68.40
2018-04-10T06:21:59.956Z,67.52
2018-04-10T06:24:28.243Z,66.63
2018-04-10T06:26:56.582Z,65.65
2018-04-10T06:29:24.872Z,64.30
2018-04-10T06:31:53.224Z,63.53
2018-04-10T06:34:22.344Z,62.68
2018-04-10T06:36:51.418Z,62.33
2018-04-10T06:39:20.108Z,62.14
2018-04-10T06:41:48.924Z,61.88
2018-04-10T06:44:17.263Z,60.74
2018-04-10T06:46:45.745Z,60.05
2018-04-10T06:49:14.152Z,58.66
2018-04-10T06:51:42.502Z,57.23
2018-04-10T06:54:12.382Z,55.23
2018-04-10T06:56:40.759Z,52.60
2018-04-10T06:59:09.792Z,51.39
2018-04-10T07:01:38.903Z,50.34
2018-04-10T07:04:07.858Z,49.03
2018-04-10T07:06:36.270Z,49.26
2018-04-10T07:09:05.163Z,49.03
2018-04-10T07:11:33.518Z,50.66
2018-04-10T07:14:02.682Z,50.81
2018-04-10T07:16:31.496Z,52.44
2018-04-10T07:18:59.814Z,51.95
2018-04-10T07:21:28.106Z,52.03
2018-04-10T07:23:56.607Z,50.52
2018-04-10T07:26:25.747Z,49.84
2018-04-10T07:28:54.274Z,49.36
2018-04-10T07:31:23.000Z,51.02
2018-04-10T07:33:51.901Z,52.85
2018-04-10T07:36:20.288Z,50.32
2018-04-10T07:38:58.108Z,49.99
2018-04-10T07:41:26.832Z,53.32
2018-04-10T07:43:56.747Z,51.75
2018-04-10T07:46:29.019Z,52.57
2018-04-10T07:48:57.390Z,53.59
2018-04-10T07:51:26.185Z,52.16
2018-04-10T07:53:54.875Z,49.73
2018-04-10T07:56:23.163Z,51.59
2018-04-10T07:58:51.600Z,48.26
2018-04-10T08:01:19.933Z,47.23
2018-04-10T08:03:48.738Z,45.64
2018-04-10T08:06:17.699Z,45.22
2018-04-10T08:08:46.722Z,44.53
2018-04-10T08:11:15.080Z,42.00
2018-04-10T08:13:44.027Z,42.96
2018-04-10T08:16:12.340Z,41.97
2018-04-10T08:18:40.627Z,41.28
2018-04-10T08:21:09.908Z,39.57
2018-04-10T08:23:38.194Z,38.02
2018-04-10T08:26:06.490Z,35.05
2018-04-10T08:28:35.472Z,34.21
2018-04-10T08:31:04.499Z,32.83
2018-04-10T08:33:32.798Z,33.31
2018-04-10T08:36:01.925Z,34.64
2018-04-10T08:38:30.231Z,33.61
2018-04-10T08:40:59.227Z,33.43
2018-04-10T08:43:27.575Z,32.66
2018-04-10T08:45:56.766Z,31.79
2018-04-10T08:48:25.698Z,29.69
2018-04-10T08:50:54.159Z,32.85
2018-04-10T08:53:22.559Z,33.00
2018-04-10T08:55:51.565Z,31.89
2018-04-10T08:58:20.531Z,29.38
2018-04-10T09:00:49.637Z,29.57
2018-04-10T09:03:18.688Z,28.39
2018-04-10T09:05:47.030Z,27.22
2018-04-10T09:08:15.323Z,29.88
2018-04-10T09:10:45.165Z,30.27
2018-04-10T09:13:13.499Z,33.60
2018-04-10T09:15:42.471Z,33.17
2018-04-10T09:18:11.946Z,28.94
2018-04-10T09:20:40.690Z,31.46
2018-04-10T09:23:09.044Z,35.61
2018-04-10T09:25:37.371Z,35.55
2018-04-10T09:28:06.490Z,35.74
2018-04-10T09:30:35.707Z,35.08
2018-04-10T09:33:04.092Z,34.40
2018-04-10T09:35:32.390Z,31.05
2018-04-10T09:38:01.320Z,35.73
2018-04-10T09:40:29.614Z,33.68
2018-04-10T09:42:58.815Z,33.17
2018-04-10T09:45:27.902Z,31.67
2018-04-10T09:47:56.207Z,31.75
2018-04-10T09:50:25.314Z,30.38
2018-04-10T09:52:54.281Z,27.29
2018-04-10T09:55:22.707Z,28.91
2018-04-10T09:57:56.371Z,28.33
2018-04-10T10:00:32.261Z,27.07
2018-04-10T10:03:01.446Z,26.72
2018-04-10T10:05:29.766Z,28.97
2018-04-10T10:07:58.869Z,29.40
2018-04-10T10:10:27.976Z,28.48
2018-04-10T10:12:57.073Z,27.76
2018-04-10T10:15:26.150Z,26.39
2018-04-10T10:17:56.999Z,27.98
2018-04-10T10:20:25.287Z,28.16
2018-04-10T10:22:54.206Z,28.59
2018-04-10T10:25:22.496Z,27.74
2018-04-10T10:27:50.802Z,27.23
2018-04-10T10:30:21.659Z,25.89
2018-04-10T10:32:50.265Z,24.52
2018-04-10T10:35:18.559Z,24.87
2018-04-10T10:37:48.010Z,25.34
2018-04-10T10:40:16.319Z,26.68
2018-04-10T10:42:45.527Z,25.75
2018-04-10T10:45:14.525Z,26.13
2018-04-10T10:47:42.862Z,25.46
2018-04-10T10:50:11.150Z,24.26
2018-04-10T10:52:39.470Z,24.21
2018-04-10T10:55:07.774Z,22.96
2018-04-10T10:57:36.056Z,26.89
2018-04-10T11:00:05.134Z,27.17
2018-04-10T11:02:33.708Z,27.99
2018-04-10T11:05:02.759Z,29.31
2018-04-10T11:07:31.046Z,31.95
2018-04-10T11:09:59.399Z,30.78
2018-04-10T11:12:27.695Z,28.62
2018-04-10T11:14:55.987Z,28.40
2018-04-10T11:17:24.340Z,27.47
2018-04-10T11:19:52.634Z,29.41
2018-04-10T11:22:20.932Z,29.17
2018-04-10T11:24:50.022Z,31.46
2018-04-10T11:27:18.507Z,32.51
2018-04-10T11:29:47.206Z,30.57
2018-04-10T11:32:16.914Z,31.72
2018-04-10T11:34:45.315Z,31.25
2018-04-10T11:37:13.622Z,30.58
2018-04-10T11:39:42.834Z,27.31
2018-04-10T11:42:11.666Z,27.51
2018-04-10T11:44:40.731Z,29.32
2018-04-10T11:47:09.171Z,29.49
2018-04-10T11:49:37.492Z,28.84
2018-04-10T11:52:06.227Z,28.32
2018-04-10T11:54:34.847Z,26.66
2018-04-10T11:57:03.150Z,25.26
2018-04-10T11:59:32.159Z,24.80
2018-04-10T12:02:00.563Z,24.78
2018-04-10T12:04:29.531Z,28.40
2018-04-10T12:06:57.855Z,30.13
2018-04-10T12:09:26.147Z,29.64
2018-04-10T12:11:56.031Z,31.10
2018-04-10T12:14:24.370Z,30.45
2018-04-10T12:16:53.438Z,26.43
2018-04-10T12:19:22.622Z,26.30
2018-04-10T12:21:55.845Z,27.14
2018-04-10T12:24:26.558Z,24.23
2018-04-10T12:26:55.559Z,21.68
2018-04-10T12:29:24.015Z,25.12
2018-04-10T12:31:52.406Z,23.53
2018-04-10T12:34:21.877Z,23.48
2018-04-10T12:36:50.919Z,21.69
2018-04-10T12:39:19.206Z,22.84
2018-04-10T12:41:47.646Z,24.55
2018-04-10T12:44:16.695Z,26.71
2018-04-10T12:46:45.594Z,28.64
2018-04-10T12:49:13.920Z,33.08
2018-04-10T12:51:42.219Z,33.07
2018-04-10T12:54:11.439Z,33.54
2018-04-10T12:56:39.810Z,33.59
2018-04-10T12:59:09.019Z,31.72
2018-04-10T13:01:38.114Z,31.84
2018-04-10T13:04:07.714Z,32.42
2018-04-10T13:06:37.011Z,31.91
2018-04-10T13:09:08.528Z,30.07
2018-04-10T13:11:38.564Z,27.85
2018-04-10T13:14:07.051Z,27.11
2018-04-10T13:16:35.863Z,24.36
2018-04-10T13:19:04.367Z,23.56
2018-04-10T13:21:34.167Z,23.34
2018-04-10T13:24:02.454Z,22.29
2018-04-10T13:26:31.375Z,23.29
2018-04-10T13:28:59.671Z,24.93
2018-04-10T13:31:28.247Z,25.23
2018-04-10T13:33:56.586Z,26.66
2018-04-10T13:36:26.075Z,24.98
2018-04-10T13:38:54.363Z,23.56
2018-04-10T13:41:22.698Z,27.90
2018-04-10T13:43:51.788Z,28.37
2018-04-10T13:46:20.409Z,28.38
2018-04-10T13:48:48.800Z,28.01
2018-04-10T13:51:17.579Z,30.62
2018-04-10T13:53:46.023Z,31.28
2018-04-10T13:56:14.411Z,29.85
2018-04-10T13:58:42.715Z,32.02
2018-04-10T14:01:11.819Z,32.34
2018-04-10T14:03:40.763Z,33.39
2018-04-10T14:06:09.074Z,34.89
2018-04-10T14:08:39.001Z,35.90
2018-04-10T14:11:07.997Z,34.04
2018-04-10T14:13:37.206Z,34.91
2018-04-10T14:16:06.675Z,34.38
2018-04-10T14:18:34.981Z,35.93
2018-04-10T14:21:03.451Z,36.98
2018-04-10T14:23:31.825Z,37.74
2018-04-10T14:26:00.888Z,38.06
2018-04-10T14:28:29.918Z,39.42
2018-04-10T14:30:58.276Z,39.75
2018-04-10T14:33:26.587Z,39.80
2018-04-10T14:35:54.879Z,39.66
2018-04-10T14:38:23.234Z,39.64
2018-04-10T14:40:51.974Z,39.38
2018-04-10T14:43:20.562Z,39.76
2018-04-10T14:45:48.932Z,39.80
2018-04-10T14:48:17.227Z,39.83
2018-04-10T14:50:45.515Z,40.83
2018-04-10T14:53:13.866Z,41.94
2018-04-10T14:55:42.181Z,41.57
2018-04-10T14:58:10.483Z,42.98
2018-04-10T15:00:38.839Z,47.00
2018-04-10T15:03:07.906Z,49.16
2018-04-10T15:05:40.014Z,51.45
2018-04-10T15:08:08.428Z,50.42
2018-04-10T15:10:36.807Z,52.71
2018-04-10T15:13:07.255Z,53.30
2018-04-10T15:15:36.130Z,52.96
2018-04-10T15:18:04.427Z,53.29
2018-04-10T15:20:33.048Z,53.65
2018-04-10T15:23:02.178Z,55.45
2018-04-10T15:25:31.250Z,57.93
2018-04-10T15:27:59.543Z,59.70
2018-04-10T15:30:27.992Z,57.53
2018-04-10T15:32:56.848Z,60.39
2018-04-10T15:35:25.550Z,61.28
2018-04-10T15:37:54.730Z,61.11
2018-04-10T15:40:23.027Z,62.27
2018-04-10T15:42:51.318Z,64.05
2018-04-10T15:45:20.246Z,61.90
2018-04-10T15:47:48.759Z,63.71
2018-04-10T15:50:17.771Z,62.89
2018-04-10T15:52:46.055Z,64.26
2018-04-10T15:55:14.822Z,64.75
2018-04-10T15:57:43.198Z,63.85
2018-04-10T16:00:11.779Z,65.32
2018-04-10T16:02:41.600Z,66.61
2018-04-10T16:05:09.950Z,67.69
2018-04-10T16:07:38.807Z,67.00
2018-04-10T16:10:07.118Z,67.30
2018-04-10T16:12:35.447Z,67.49
2018-04-10T16:15:04.615Z,71.37
2018-04-10T16:17:33.082Z,74.05
2018-04-10T16:20:01.958Z,76.60
2018-04-10T16:22:30.510Z,78.88
2018-04-10T16:25:00.778Z,81.71
2018-04-10T16:27:33.534Z,83.01
2018-04-10T16:30:01.921Z,85.79
2018-04-10T16:32:30.831Z,86.48
2018-04-10T16:34:59.267Z,87.59
2018-04-10T16:37:28.247Z,87.42
2018-04-10T16:39:57.355Z,89.43
2018-04-10T16:42:25.765Z,89.53
2018-04-10T16:44:54.616Z,89.71
2018-04-10T16:47:23.158Z,90.38
2018-04-10T16:49:55.701Z,90.30
2018-04-10T16:52:24.739Z,90.38
2018-04-10T16:54:53.016Z,90.79
2018-04-10T16:57:21.904Z,91.17
2018-04-10T16:59:50.208Z,91.16
2018-04-10T17:02:18.750Z,91.78
2018-04-10T17:04:47.526Z,92.11
2018-04-10T17:07:16.182Z,91.81
2018-04-10T17:09:44.512Z,91.91
2018-04-10T17:12:12.952Z,92.17
2018-04-10T17:14:41.247Z,92.88
2018-04-10T17:17:10.656Z,93.31
2018-04-10T17:19:39.023Z,92.82
2018-04-10T17:22:07.314Z,93.35
2018-04-10T17:24:35.946Z,93.42
2018-04-10T17:27:05.931Z,93.25
2018-04-10T17:29:34.685Z,93.55
2018-04-10T17:32:02.981Z,93.32
2018-04-10T17:34:32.239Z,93.01
2018-04-10T17:37:01.210Z,92.32
2018-04-10T17:39:29.587Z,92.51
2018-04-10T17:41:58.423Z,92.39
2018-04-10T17:44:27.252Z,92.16
2018-04-10T17:46:55.550Z,92.31
2018-04-10T17:49:24.110Z,92.36
2018-04-10T17:51:52.964Z,92.88
2018-04-10T17:54:21.252Z,91.46
2018-04-10T17:56:49.615Z,91.67
2018-04-10T17:59:17.974Z,91.63
2018-04-10T18:01:47.307Z,90.63
2018-04-10T18:04:16.563Z,89.50
2018-04-10T18:06:45.735Z,88.69
2018-04-10T18:09:15.616Z,89.45
2018-04-10T18:11:46.334Z,89.79
2018-04-10T18:14:15.107Z,90.49
2018-04-10T18:16:44.394Z,90.55
2018-04-10T18:19:14.382Z,90.53
2018-04-10T18:21:45.130Z,89.64
2018-04-10T18:24:15.007Z,90.55
2018-04-10T18:26:44.158Z,89.31
2018-04-10T18:29:14.166Z,89.18
2018-04-10T18:31:43.171Z,90.62
2018-04-10T18:34:12.394Z,89.73
2018-04-10T18:36:41.360Z,89.83
2018-04-10T18:39:11.187Z,90.24
2018-04-10T18:41:39.557Z,91.47
2018-04-10T18:44:08.727Z,92.36
2018-04-10T18:46:37.718Z,92.38
2018-04-10T18:49:06.909Z,92.00
2018-04-10T18:51:36.531Z,91.73
2018-04-10T18:54:04.803Z,90.43
2018-04-10T18:56:33.232Z,90.38
2018-04-10T18:59:02.275Z,91.48
2018-04-10T19:01:30.632Z,91.72
2018-04-10T19:03:58.973Z,90.49
2018-04-10T19:06:27.954Z,90.91
2018-04-10T19:08:56.316Z,90.59
2018-04-10T19:11:25.098Z,89.17
2018-04-10T19:13:59.342Z,90.80
2018-04-10T19:16:28.635Z,92.10
2018-04-10T19:18:56.946Z,93.19
2018-04-10T19:21:25.234Z,93.12
2018-04-10T19:23:54.233Z,92.99
2018-04-10T19:26:23.352Z,92.79
2018-04-10T19:28:52.322Z,91.12
2018-04-10T19:31:20.990Z,90.64
2018-04-10T19:33:51.491Z,90.38
2018-04-10T19:36:23.249Z,88.70
2018-04-10T19:38:51.930Z,88.78
2018-04-10T19:41:20.388Z,88.42
2018-04-10T19:43:49.334Z,88.80
2018-04-10T19:46:17.615Z,88.79
2018-04-10T19:48:46.279Z,89.21
2018-04-10T19:51:15.131Z,89.40
2018-04-10T19:53:44.162Z,89.46
2018-04-10T19:56:13.154Z,89.24
2018-04-10T19:58:41.462Z,87.96
2018-04-10T20:01:09.779Z,87.18
2018-04-10T20:03:38.060Z,88.02
2018-04-10T20:06:07.079Z,88.02
2018-04-10T20:08:36.080Z,86.60
2018-04-10T20:11:05.323Z,87.82
2018-04-10T20:13:33.622Z,88.33
2018-04-10T20:16:02.691Z,89.18
2018-04-10T20:18:31.440Z,88.40
2018-04-10T20:21:01.858Z,86.87
2018-04-10T20:23:30.800Z,87.47
2018-04-10T20:25:59.187Z,87.92
2018-04-10T20:28:27.534Z,88.05
2018-04-10T20:30:55.970Z,88.01
2018-04-10T20:33:24.406Z,88.71
2018-04-10T20:35:52.790Z,89.92
2018-04-10T20:38:21.281Z,89.54
2018-04-10T20:40:51.831Z,90.18
2018-04-10T20:43:21.107Z,90.81
2018-04-10T20:45:50.319Z,91.27
2018-04-10T20:48:19.250Z,92.19
2018-04-10T20:50:47.543Z,92.86
2018-04-10T20:53:16.642Z,92.45
2018-04-10T20:55:45.794Z,92.16
2018-04-10T20:58:14.074Z,92.03
2018-04-10T21:00:42.440Z,92.56
2018-04-10T21:03:11.378Z,92.41
2018-04-10T21:05:39.797Z,92.29
2018-04-10T21:08:08.155Z,92.03
2018-04-10T21:10:37.834Z,93.87
2018-04-10T21:13:06.377Z,94.10
2018-04-10T21:15:34.694Z,93.99
2018-04-10T21:18:03.754Z,94.01
2018-04-10T21:20:32.039Z,93.72
2018-04-10T21:23:00.470Z,93.68
2018-04-10T21:25:29.404Z,93.46
2018-04-10T21:27:57.696Z,93.20
2018-04-10T21:30:26.076Z,92.85
2018-04-10T21:32:54.586Z,92.70
2018-04-10T21:35:22.885Z,92.76
2018-04-10T21:37:51.215Z,93.23
2018-04-10T21:40:19.615Z,93.48
2018-04-10T21:42:54.383Z,94.28
2018-04-10T21:45:22.718Z,95.05
2018-04-10T21:47:51.025Z,95.61
2018-04-10T21:50:19.596Z,95.61
2018-04-10T21:52:47.887Z,95.55
2018-04-10T21:55:16.811Z,95.55
2018-04-10T21:57:45.919Z,95.86
2018-04-10T22:00:14.317Z,95.92
2018-04-10T22:02:43.023Z,95.68
2018-04-10T22:05:11.368Z,95.39
2018-04-10T22:07:39.676Z,95.64
2018-04-10T22:10:08.087Z,95.76
2018-04-10T22:12:36.831Z,95.83
2018-04-10T22:15:05.114Z,96.16
2018-04-10T22:17:33.852Z,95.92
2018-04-10T22:20:03.011Z,95.55
2018-04-10T22:22:32.066Z,95.28
2018-04-10T22:25:00.991Z,95.05
2018-04-10T22:27:29.485Z,95.10
2018-04-10T22:29:59.510Z,94.77
2018-04-10T22:32:27.887Z,94.42
2018-04-10T22:34:56.367Z,94.20
2018-04-10T22:37:25.059Z,93.31
2018-04-10T22:39:53.386Z,93.04
2018-04-10T22:42:21.728Z,92.92
2018-04-10T22:44:50.030Z,93.88
2018-04-10T22:47:19.039Z,93.92
2018-04-10T22:49:47.466Z,93.82
2018-04-10T22:52:16.911Z,95.16
2018-04-10T22:54:47.343Z,96.66
2018-04-10T22:57:16.251Z,96.47
2018-04-10T22:59:44.771Z,96.92
2018-04-10T23:02:13.656Z,96.95
2018-04-10T23:04:41.951Z,96.58
2018-04-10T23:07:11.008Z,96.37
2018-04-10T23:09:40.251Z,97.02
2018-04-10T23:12:09.241Z,97.74
2018-04-10T23:14:37.739Z,98.24
2018-04-10T23:17:07.410Z,98.25
2018-04-10T23:19:36.534Z,97.71
2018-04-10T23:22:05.627Z,97.29
2018-04-10T23:24:34.734Z,97.00
2018-04-10T23:27:03.292Z,96.77
2018-04-10T23:29:31.629Z,96.75
2018-04-10T23:32:01.384Z,96.72
2018-04-10T23:34:29.386Z,96.74
2018-04-10T23:36:58.735Z,96.56
2018-04-10T23:39:27.027Z,96.45
2018-04-10T23:41:56.051Z,96.24
2018-04-10T23:44:24.343Z,96.11
2018-04-10T23:46:52.692Z,96.16
2018-04-10T23:49:20.985Z,96.34
2018-04-10T23:51:49.534Z,97.71
2018-04-10T23:54:18.546Z,97.86
2018-04-10T23:56:46.900Z,97.42
2018-04-10T23:59:15.963Z,97.21
